ADDS METAR Data INFO
IDs: Format: Raw Decoded Include TAF

Data at: 2048 UTC 19 Jul 2018

KAQP 192031Z AUTO 27013KT 10SM SCT018 SCT032 BKN037 24/19 A2962 RMK AO2
KAQP 192011Z AUTO 29013KT 10SM SCT039 SCT049 24/19 A2962 RMK AO2
KAQP 191951Z AUTO 28011KT 10SM SCT034 BKN049 24/19 A2963 RMK AO2 LTG DSNT
KAQP 191931Z AUTO 27011G15KT 10SM SCT030 SCT039 24/19 A2963 RMK AO2
KAQP 191911Z AUTO 27011G16KT 10SM SCT020 BKN030 24/19 A2963 RMK AO2
KAQP 191851Z AUTO 26011KT 10SM SCT020 SCT033 24/19 A2963 RMK AO2
KAQP 191839Z AUTO 25011KT 10SM SCT018 24/19 A2963 RMK AO2
KAQP 191811Z AUTO 24007KT 10SM SCT016 BKN038 23/19 A2963 RMK AO2
KAQP 191751Z AUTO 25009KT 10SM -RA SCT013 BKN038 23/19 A2964 RMK AO2
KAQP 191735Z AUTO 24007KT 10SM -RA BKN013 BKN024 BKN033 23/20 A2965 RMK AO
KAQP 191710Z AUTO 25008KT 10SM -RA SCT009 BKN022 BKN028 23/20 A2964 RMK AO2
KAQP 191656Z AUTO 25006KT 10SM -RA SCT012 BKN022 OVC027 23/20 A2964 RMK AO
KAQP 191630Z AUTO 24007KT 10SM SCT009 BKN020 OVC029 22/19 A2965 RMK AO2
KAQP 191610Z AUTO 23007KT 10SM -RA SCT009 BKN017 OVC031 22/19 A2964 RMK AO2
KAQP 191551Z AUTO 20005KT 10SM -RA SCT009 BKN024 OVC029 22/19 A2965 RMK AO
KAQP 191537Z AUTO 17005KT 10SM -DZ SCT011 BKN022 OVC029 22/19 A2965 RMK AO
KAQP 191517Z AUTO 18007KT 10SM -RA BKN011 OVC019 21/19 A2966 RMK AO2
KAQP 191454Z AUTO 15004KT 10SM -RA BKN009 OVC014 22/19 A2966 RMK AO2
KAQP 191431Z AUTO 14008KT 10SM DZ OVC011 21/19 A2966 RMK AO2
KAQP 191415Z AUTO 11009KT 10SM BKN007 OVC012 21/19 A2967 RMK AO2
KAQP 191351Z AUTO 11009KT 10SM BKN009 BKN014 OVC018 21/19 A2969 RMK AO2
KAQP 191331Z AUTO 10010G14KT 10SM BKN009 OVC017 21/19 A2969 RMK AO2
KAQP 191315Z AUTO 10010G16KT 10SM SCT008 BKN016 OVC020 21/18 A2969 RMK AO2
KAQP 191251Z AUTO 11011KT 10SM -RA BKN008 BKN017 OVC028 21/18 A2970 RMK AO2 LTG DSNT SE
KAQP 191230Z AUTO 10010KT 7SM RA SCT006 BKN010 OVC028 21/18 A2971 RMK AO2
KAQP 191211Z AUTO 10013KT 3SM +RA BKN010 BKN019 OVC025 21/18 A2972 RMK AO2
KAQP 191151Z AUTO 11011KT 7SM VCTSRA SCT006 BKN010 OVC027 21/18 A2973 RMK
KAQP 191135Z AUTO 11010KT 5SM RA BKN006 BKN010 OVC016 21/19 A2973 RMK AO2
KAQP 191111Z AUTO 10009KT 10SM RA SCT008 BKN020 OVC028 21/19 A2974 RMK AO2 LTG DSNT SE
KAQP 191051Z AUTO 10008KT 10SM -RA SCT015 BKN020 BKN040 21/19 A2975 RMK AO
KAQP 191031Z AUTO 09007KT 10SM -RA SCT022 BKN055 21/19 A2975 RMK AO2 LTG D
KAQP 191011Z AUTO 10007KT 10SM -RA SCT022 BKN065 OVC100 21/19 A2976 RMK AO
KAQP 190951Z AUTO 12007KT 10SM -RA SCT022 BKN039 OVC080 21/18 A2978 RMK AO
KAQP 190931Z AUTO 13009KT 10SM -RA SCT017 BKN033 OVC050 21/18 A2979 RMK AO
KAQP 190911Z AUTO 12010G16KT 10SM SCT036 BKN042 OVC050 21/18 A2979 RMK AO2
KAQP 190851Z AUTO 12011KT 10SM BKN042 OVC050 21/19 A2979 RMK AO2
KAQP 190834Z AUTO 12011G15KT 10SM BKN046 OVC050 21/19 A2979 RMK AO2
KAQP 190810Z AUTO 11008KT 10SM SCT044 BKN055 OVC090 22/19 A2981 RMK AO2 LTG DSNT S
KAQP 190751Z AUTO 09008KT 7SM -RA SCT011 BKN044 OVC060 22/19 A2981 RMK AO2
KAQP 190735Z AUTO 10003KT 7SM RA SCT013 OVC060 22/18 A2982 RMK AO2 LTG DSN
KAQP 190716Z AUTO 11009KT 10SM TS BKN050 22/18 A2982 RMK AO2 LTG DSNT SW
KAQP 190651Z AUTO 11008KT 10SM BKN048 22/18 A2983 RMK AO2
KAQP 190631Z AUTO 12006KT 10SM SCT050 22/18 A2984 RMK AO2
KAQP 190612Z AUTO 13007KT 10SM CLR 22/18 A2985 RMK AO2 LTG DSNT SW
KAQP 190557Z AUTO 12006KT 10SM CLR 22/18 A2986 RMK AO2 LTG DSNT SW
KAQP 190531Z AUTO 13005KT 10SM BKN050 BKN060 23/18 A2987 RMK AO2 LTG DSNT
KAQP 190511Z AUTO 15005KT 10SM BKN050 BKN060 BKN070 23/18 A2987 RMK AO2
KAQP 190451Z AUTO 13008KT 10SM SCT050 BKN080 23/18 A2988 RMK AO2
KAQP 190436Z AUTO 12007KT 10SM SCT090 23/18 A2988 RMK AO2
KAQP 190410Z AUTO 12006KT 10SM SCT090 23/18 A2988 RMK AO2
KAQP 190355Z AUTO 11009KT 10SM CLR 23/18 A2988 RMK AO2
KAQP 190330Z AUTO 13010KT 10SM CLR 24/18 A2989 RMK AO2
KAQP 190311Z AUTO 12008KT 10SM CLR 24/18 A2989 RMK AO2
KAQP 190251Z AUTO 11009KT 10SM CLR 24/18 A2989 RMK AO2
KAQP 190231Z AUTO 11008KT 10SM CLR 24/18 A2989 RMK AO2
KAQP 190215Z AUTO 12006KT 10SM CLR 24/18 A2990 RMK AO2
KAQP 190151Z AUTO 12006KT 10SM CLR 24/18 A2990 RMK AO2 LTG DSNT S
KAQP 190131Z AUTO 13007KT 10SM CLR 25/18 A2991 RMK AO2
KAQP 190111Z AUTO 12005KT 10SM CLR 25/18 A2991 RMK AO2
KAQP 190051Z AUTO 12007KT 10SM CLR 26/18 A2991 RMK AO2 LTG DSNT W
KAQP 190037Z AUTO 13006KT 10SM CLR 26/18 A2992 RMK AO2
KAQP 190017Z AUTO 13006KT 10SM CLR 27/18 A2992 RMK AO2
KAQP 182355Z AUTO 13008G14KT 10SM CLR 28/18 A2992 RMK AO2
KAQP 182331Z AUTO 14007KT 10SM CLR 28/18 A2992 RMK AO2 LTG DSNT W
KAQP 182319Z AUTO 13007KT 10SM CLR 27/18 A2993 RMK AO2
KAQP 182255Z AUTO 14007KT 10SM SCT040 27/18 A2993 RMK AO2
KAQP 182231Z AUTO 13010KT 7SM SCT040 SCT047 28/18 A2994 RMK AO2
KAQP 182215Z AUTO 12008KT 10SM CLR 28/17 A2995 RMK AO2
KAQP 182151Z AUTO 14009KT 10SM CLR 28/18 A2996 RMK AO2
KAQP 182130Z AUTO 13009KT 10SM CLR 28/19 A2997 RMK AO2 LTG DSNT W
KAQP 182057Z AUTO 17006KT 10SM SCT036 29/18 A2998 RMK AO2
KAQP 182032Z AUTO 16007KT 10SM SCT038 28/18 A2999 RMK AO2
KAQP 182021Z AUTO 15007KT 120V170 10SM CLR 28/18 A2999 RMK AO2
KAQP 181951Z AUTO 14007KT 10SM CLR 27/18 A3000 RMK AO2
KAQP 181931Z AUTO 16006KT 10SM CLR 28/18 A3000 RMK AO2
KAQP 181915Z AUTO 15007KT 10SM CLR 28/18 A3001 RMK AO2
KAQP 181851Z AUTO 15006KT 10SM CLR 28/17 A3001 RMK AO2
KAQP 181838Z AUTO 13007KT 10SM CLR 27/17 A3001 RMK AO2
KAQP 181811Z AUTO 12006KT 10SM CLR 26/18 A3002 RMK AO2
KAQP 181751Z AUTO 13007KT 10SM CLR 26/18 A3003 RMK AO2
KAQP 181737Z AUTO 14004KT 10SM CLR 26/18 A3003 RMK AO2
KAQP 181711Z AUTO 13005KT 10SM CLR 26/18 A3003 RMK AO2
KAQP 181651Z AUTO 12006KT 10SM CLR 26/18 A3004 RMK AO2
KAQP 181633Z AUTO 13006KT 10SM CLR 26/18 A3004 RMK AO2
KAQP 181614Z AUTO 15005KT 10SM CLR 24/18 A3005 RMK AO2
KAQP 181552Z AUTO 14004KT 10SM CLR 24/18 A3005 RMK AO2
KAQP 181531Z AUTO 14006KT 10SM CLR 24/17 A3005 RMK AO2
KAQP 181519Z AUTO 14004KT 10SM CLR 24/17 A3005 RMK AO2
KAQP 181451Z AUTO 14004KT 10SM CLR 23/17 A3005 RMK AO2
KAQP 181439Z AUTO 13006KT 10SM CLR 23/17 A3005 RMK AO2
KAQP 181411Z AUTO 14005KT 10SM CLR 22/17 A3006 RMK AO2
KAQP 181351Z AUTO 14004KT 10SM CLR 22/16 A3007 RMK AO2
KAQP 181340Z AUTO 14005KT 10SM CLR 22/17 A3007 RMK AO2
KAQP 181311Z AUTO 16005KT 10SM CLR 21/16 A3007 RMK AO2
KAQP 181253Z AUTO 13005KT 10SM CLR 20/15 A3007 RMK AO2
KAQP 181231Z AUTO 13005KT 10SM CLR 19/15 A3008 RMK AO2
KAQP 181213Z AUTO 10005KT 10SM CLR 18/14 A3007 RMK AO2
KAQP 181156Z AUTO 10004KT 10SM CLR 18/14 A3007 RMK AO2
KAQP 181133Z AUTO 10006KT 10SM CLR 17/14 A3007 RMK AO2
KAQP 181112Z AUTO 10004KT 10SM CLR 17/14 A3007 RMK AO2
KAQP 181051Z AUTO 14003KT 10SM CLR 17/14 A3008 RMK AO2
KAQP 181031Z AUTO 11003KT 10SM CLR 17/14 A3008 RMK AO2
KAQP 181021Z AUTO 13003KT 10SM CLR 18/14 A3008 RMK AO2
KAQP 180951Z AUTO 14004KT 10SM CLR 18/14 A3008 RMK AO2
KAQP 180931Z AUTO 15005KT 10SM SCT070 18/14 A3008 RMK AO2
KAQP 180915Z AUTO 13005KT 10SM SCT070 18/14 A3009 RMK AO2
KAQP 180851Z AUTO 00000KT 10SM SCT070 18/14 A3009 RMK AO2